createdAt,value
2022-12-03T00:00:00.627Z,98988.88
2022-12-03T00:02:27.769Z,98958.75
2022-12-03T00:04:54.984Z,99020.81
2022-12-03T00:07:22.224Z,99016.03
2022-12-03T00:09:49.128Z,98899.66
2022-12-03T00:12:16.198Z,98968.19
2022-12-03T00:14:52.505Z,99019.03
2022-12-03T00:17:19.586Z,98978.28
2022-12-03T00:19:46.635Z,98904.41
2022-12-03T00:22:13.820Z,98950.69
2022-12-03T00:24:40.751Z,98913.19
2022-12-03T00:27:07.874Z,98990.25
2022-12-03T00:29:34.992Z,98978.53
2022-12-03T00:32:02.189Z,98981.06
2022-12-03T00:34:29.843Z,98967.13
2022-12-03T00:36:56.749Z,98938.06
2022-12-03T00:39:23.840Z,98934.41
2022-12-03T00:41:51.617Z,98956.94
2022-12-03T00:44:18.687Z,98870.66
2022-12-03T00:46:45.775Z,98897.59
2022-12-03T00:49:12.919Z,98932.31
2022-12-03T00:51:39.996Z,98894.88
2022-12-03T00:54:06.930Z,98923.53
2022-12-03T00:56:34.398Z,98979.72
2022-12-03T00:59:01.841Z,98948.19
2022-12-03T01:01:29.031Z,98960.38
2022-12-03T01:03:56.154Z,98977.16
2022-12-03T01:06:23.374Z,98928.50
2022-12-03T01:08:50.293Z,98913.41
2022-12-03T01:11:36.196Z,98931.72
2022-12-03T01:14:08.983Z,98991.28
2022-12-03T01:16:36.564Z,98963.19
2022-12-03T01:19:05.534Z,98925.56
2022-12-03T01:21:33.704Z,98909.13
2022-12-03T01:24:01.077Z,98845.53
2022-12-03T01:26:28.171Z,98927.16
2022-12-03T01:28:55.288Z,98926.47
2022-12-03T01:31:40.701Z,98865.75
2022-12-03T01:34:07.704Z,98936.47
2022-12-03T01:36:34.862Z,98872.34
2022-12-03T01:39:03.943Z,98933.56
2022-12-03T01:41:32.815Z,98881.84
2022-12-03T01:44:01.300Z,98889.13
2022-12-03T01:46:37.921Z,98907.22
2022-12-03T01:49:05.537Z,98886.44
2022-12-03T01:51:32.493Z,98957.03
2022-12-03T01:54:01.000Z,98961.50
2022-12-03T01:56:28.466Z,98978.13
2022-12-03T01:58:55.431Z,98917.50
2022-12-03T02:01:22.468Z,98880.88
2022-12-03T02:03:49.794Z,98911.00
2022-12-03T02:06:20.588Z,98890.78
2022-12-03T02:08:48.976Z,98952.59
2022-12-03T02:11:31.676Z,98905.97
2022-12-03T02:14:12.982Z,98923.63
2022-12-03T02:16:41.932Z,98979.69
2022-12-03T02:19:24.732Z,98949.91
2022-12-03T02:22:10.571Z,98973.16
2022-12-03T02:25:06.984Z,98967.66
2022-12-03T02:27:33.985Z,98973.09
2022-12-03T02:30:00.931Z,98903.28
2022-12-03T02:32:28.076Z,98967.88
2022-12-03T02:34:55.378Z,98958.28
2022-12-03T02:37:32.752Z,98950.09
2022-12-03T02:40:09.160Z,98893.72
2022-12-03T02:42:37.204Z,98910.53
2022-12-03T02:45:19.145Z,98956.94
2022-12-03T02:47:58.973Z,98936.47
2022-12-03T02:50:32.282Z,98931.47
2022-12-03T02:53:04.826Z,98988.31
2022-12-03T02:55:37.076Z,98950.09
2022-12-03T02:58:05.857Z,98930.75
2022-12-03T03:00:35.551Z,98916.97
2022-12-03T03:03:04.510Z,98902.00
2022-12-03T03:05:35.970Z,98881.69
2022-12-03T03:08:04.114Z,98957.91
2022-12-03T03:10:33.522Z,98907.91
2022-12-03T03:13:07.537Z,98881.31
2022-12-03T03:15:38.064Z,98922.66
2022-12-03T03:18:08.515Z,98905.28
2022-12-03T03:20:36.711Z,98833.88
2022-12-03T03:23:14.466Z,98925.91
2022-12-03T03:25:49.568Z,98868.16
2022-12-03T03:28:17.528Z,98884.25
2022-12-03T03:30:45.282Z,98863.06
2022-12-03T03:33:15.480Z,98930.38
2022-12-03T03:35:45.163Z,98884.13
2022-12-03T03:38:12.783Z,98940.84
2022-12-03T03:40:39.972Z,98873.13
2022-12-03T03:43:07.835Z,98849.72
2022-12-03T03:45:35.188Z,98874.25
2022-12-03T03:48:02.319Z,98898.47
2022-12-03T03:50:32.101Z,98891.50
2022-12-03T03:53:00.997Z,98886.97
2022-12-03T03:55:29.089Z,98862.84
2022-12-03T03:57:56.417Z,98877.94
2022-12-03T04:00:23.918Z,98790.50
2022-12-03T04:02:53.730Z,98830.47
2022-12-03T04:05:24.029Z,98853.34
2022-12-03T04:07:53.339Z,98843.69
2022-12-03T04:10:38.763Z,98837.28
2022-12-03T04:13:06.480Z,98804.06
2022-12-03T04:15:33.463Z,98840.44
2022-12-03T04:18:19.665Z,98914.75
2022-12-03T04:20:47.133Z,98808.47
2022-12-03T04:23:14.178Z,98878.28
2022-12-03T04:25:59.956Z,98824.16
2022-12-03T04:28:48.500Z,98888.44
2022-12-03T04:31:33.906Z,98855.41
2022-12-03T04:34:19.376Z,98823.28
2022-12-03T04:36:47.041Z,98915.28
2022-12-03T04:39:15.578Z,98879.06
2022-12-03T04:41:43.278Z,98905.00
2022-12-03T04:44:29.251Z,98916.56
2022-12-03T04:46:56.299Z,98875.66
2022-12-03T04:49:23.752Z,98896.56
2022-12-03T04:51:50.715Z,98816.84
2022-12-03T04:54:17.883Z,98843.53
2022-12-03T04:56:45.098Z,98905.69
2022-12-03T04:59:15.992Z,98921.44
2022-12-03T05:01:44.719Z,98859.97
2022-12-03T05:04:13.523Z,98923.16
2022-12-03T05:06:42.047Z,98931.16
2022-12-03T05:09:09.973Z,98909.94
2022-12-03T05:11:37.166Z,98924.16
2022-12-03T05:14:04.639Z,98893.31
2022-12-03T05:16:34.516Z,98951.66
2022-12-03T05:19:02.069Z,98909.03
2022-12-03T05:21:29.264Z,98858.56
2022-12-03T05:23:57.189Z,98940.25
2022-12-03T05:26:24.230Z,98903.81
2022-12-03T05:28:51.453Z,98994.03
2022-12-03T05:31:18.464Z,98896.69
2022-12-03T05:33:45.532Z,98932.03
2022-12-03T05:36:13.155Z,98902.72
2022-12-03T05:41:46.370Z,98955.88
2022-12-03T05:44:20.101Z,98896.47
2022-12-03T05:46:50.307Z,98890.31
2022-12-03T05:49:17.594Z,98896.38
2022-12-03T05:51:44.587Z,98915.78
2022-12-03T05:54:11.764Z,98944.53
2022-12-03T05:56:38.720Z,98992.41
2022-12-03T05:59:05.939Z,98862.75
2022-12-03T06:01:33.095Z,98951.94
2022-12-03T06:04:00.274Z,98945.69
2022-12-03T06:06:27.304Z,98918.31
2022-12-03T06:08:54.484Z,98993.91
2022-12-03T06:11:24.499Z,98896.72
2022-12-03T06:13:52.307Z,98930.19
2022-12-03T06:16:19.587Z,98937.69
2022-12-03T06:18:46.556Z,98941.22
2022-12-03T06:21:13.719Z,98865.53
2022-12-03T06:23:44.708Z,98953.31
2022-12-03T06:26:12.860Z,98919.97
2022-12-03T06:28:42.265Z,98997.31
2022-12-03T06:31:10.058Z,98892.50
2022-12-03T06:33:37.230Z,98884.00
2022-12-03T06:36:06.520Z,98930.75
2022-12-03T06:38:33.771Z,98897.63
2022-12-03T06:41:00.803Z,98890.38
2022-12-03T06:43:27.935Z,98826.00
2022-12-03T06:45:55.224Z,98928.06
2022-12-03T06:48:22.447Z,98910.84
2022-12-03T06:50:49.458Z,98931.94
2022-12-03T06:53:17.315Z,98869.81
2022-12-03T06:55:44.500Z,98905.00
2022-12-03T06:58:11.614Z,98872.50
2022-12-03T07:00:38.592Z,98839.41
2022-12-03T07:03:08.401Z,98850.91
2022-12-03T07:05:35.519Z,98826.84
2022-12-03T07:08:03.684Z,98929.84
2022-12-03T07:10:31.138Z,98847.13
2022-12-03T07:12:58.109Z,98911.16
2022-12-03T07:15:25.371Z,98904.97
2022-12-03T07:17:52.451Z,98874.84
2022-12-03T07:20:20.046Z,98836.75
2022-12-03T07:22:47.202Z,98935.28
2022-12-03T07:25:19.515Z,98934.44
2022-12-03T07:27:49.983Z,98817.06
2022-12-03T07:30:17.214Z,98946.84
2022-12-03T07:32:45.342Z,98960.03
2022-12-03T07:35:12.310Z,98966.75
2022-12-03T07:37:40.323Z,98942.69
2022-12-03T07:40:08.811Z,99004.31
2022-12-03T07:42:36.114Z,98932.97
2022-12-03T07:45:04.123Z,98846.97
2022-12-03T07:47:31.505Z,98854.41
2022-12-03T07:49:59.022Z,98831.44
2022-12-03T07:52:27.180Z,98868.22
2022-12-03T07:54:54.305Z,98919.09
2022-12-03T07:57:23.792Z,98883.09
2022-12-03T07:59:50.768Z,98896.38
2022-12-03T08:02:21.419Z,98925.97
2022-12-03T08:04:49.008Z,98934.41
2022-12-03T08:07:17.664Z,98891.56
2022-12-03T08:09:44.771Z,98886.91
2022-12-03T08:12:40.302Z,98984.16
2022-12-03T08:15:23.932Z,98828.78
2022-12-03T08:18:00.486Z,98875.91
2022-12-03T08:20:36.549Z,98833.97
2022-12-03T08:23:20.763Z,98925.78
2022-12-03T08:25:49.485Z,98920.00
2022-12-03T08:28:23.576Z,98914.56
2022-12-03T08:31:19.823Z,98873.53
2022-12-03T08:33:50.967Z,98861.06
2022-12-03T08:36:25.309Z,98865.75
2022-12-03T08:39:25.659Z,98912.13
2022-12-03T08:42:23.183Z,98909.06
2022-12-03T08:44:50.140Z,98901.22
2022-12-03T08:47:21.723Z,98969.34
2022-12-03T08:50:17.584Z,98868.03
2022-12-03T08:52:44.755Z,98899.09
2022-12-03T08:55:37.008Z,98870.41
2022-12-03T08:58:23.494Z,98778.84
2022-12-03T09:01:24.418Z,98933.31
2022-12-03T09:03:55.236Z,98902.53
2022-12-03T09:06:22.989Z,98943.13
2022-12-03T09:08:50.341Z,98874.53
2022-12-03T09:11:17.364Z,98895.97
2022-12-03T09:13:45.309Z,98948.50
2022-12-03T09:16:12.272Z,98953.16
2022-12-03T09:18:39.639Z,98978.44
2022-12-03T09:21:06.900Z,98884.09
2022-12-03T09:23:33.869Z,98912.22
2022-12-03T09:26:00.988Z,98935.47
2022-12-03T09:28:27.950Z,98907.72
2022-12-03T09:30:55.177Z,98980.25
2022-12-03T09:33:22.346Z,98963.16
2022-12-03T09:35:49.372Z,98933.41
2022-12-03T09:38:16.467Z,98824.03
2022-12-03T09:40:43.639Z,98958.47
2022-12-03T09:43:12.511Z,98866.59
2022-12-03T09:45:39.705Z,98878.19
2022-12-03T09:48:07.129Z,98890.13
2022-12-03T09:50:34.463Z,98945.97
2022-12-03T09:53:04.027Z,98956.66
2022-12-03T09:55:31.625Z,98757.22
2022-12-03T09:58:18.986Z,98928.84
2022-12-03T10:00:52.307Z,98782.31
2022-12-03T10:03:29.459Z,98806.22
2022-12-03T10:05:58.495Z,98880.44
2022-12-03T10:08:32.969Z,98810.59
2022-12-03T10:11:00.046Z,98794.53
2022-12-03T10:13:30.808Z,98878.66
2022-12-03T10:16:16.444Z,98939.81
2022-12-03T10:18:51.405Z,98944.16
2022-12-03T10:21:32.390Z,98907.78
2022-12-03T10:24:28.920Z,98832.72
2022-12-03T10:27:02.462Z,98826.09
2022-12-03T10:29:34.686Z,98869.03
2022-12-03T10:32:10.400Z,98868.91
2022-12-03T10:34:42.559Z,98774.03
2022-12-03T10:37:22.858Z,98805.50
2022-12-03T10:40:09.359Z,98867.53
2022-12-03T10:42:41.510Z,98861.53
2022-12-03T10:45:26.506Z,98916.69
2022-12-03T10:48:27.349Z,98776.66
2022-12-03T10:51:10.524Z,98815.63
2022-12-03T10:53:40.546Z,98885.97
2022-12-03T10:56:15.054Z,98853.97
2022-12-03T10:58:44.392Z,98831.38
2022-12-03T11:01:25.048Z,98770.28
2022-12-03T11:03:53.839Z,98798.97
2022-12-03T11:06:23.378Z,98875.56
2022-12-03T11:08:58.365Z,98750.81
2022-12-03T11:11:31.496Z,98841.75
2022-12-03T11:14:03.046Z,98891.88
2022-12-03T11:16:42.139Z,98819.16
2022-12-03T11:19:39.156Z,98908.50
2022-12-03T11:22:06.185Z,98826.81
2022-12-03T11:24:36.468Z,98745.78
2022-12-03T11:27:03.327Z,98714.63
2022-12-03T11:29:54.927Z,98818.91
2022-12-03T11:32:42.798Z,98808.84
2022-12-03T11:35:24.651Z,98747.72
2022-12-03T11:37:52.290Z,98770.56
2022-12-03T11:40:19.123Z,98817.41
2022-12-03T11:42:48.343Z,98814.13
2022-12-03T11:45:36.791Z,98837.13
2022-12-03T11:48:15.544Z,98839.06
2022-12-03T11:50:53.083Z,98707.31
2022-12-03T11:53:31.571Z,98717.63
2022-12-03T11:56:11.354Z,98809.50
2022-12-03T11:58:42.790Z,98681.97
2022-12-03T12:01:10.190Z,98855.09
2022-12-03T12:03:43.855Z,98734.00
2022-12-03T12:06:18.200Z,98700.84
2022-12-03T12:08:51.289Z,98716.06
2022-12-03T12:11:33.672Z,98766.00
2022-12-03T12:14:03.454Z,98824.63
2022-12-03T12:16:53.738Z,98850.56
2022-12-03T12:19:41.354Z,98831.91
2022-12-03T12:22:14.444Z,98870.91
2022-12-03T12:24:43.440Z,98806.91
2022-12-03T12:27:24.120Z,98668.16
2022-12-03T12:29:58.486Z,98819.88
2022-12-03T12:32:30.579Z,98714.38
2022-12-03T12:35:17.730Z,98786.34
2022-12-03T12:37:59.212Z,98777.72
2022-12-03T12:40:31.874Z,98792.59
2022-12-03T12:43:14.221Z,98707.16
2022-12-03T12:45:44.217Z,98634.16
2022-12-03T12:48:30.964Z,98616.91
2022-12-03T12:51:14.642Z,98781.00
2022-12-03T12:53:45.209Z,98693.16
2022-12-03T12:56:32.022Z,98768.19
2022-12-03T12:59:16.664Z,98816.94
2022-12-03T13:01:47.752Z,98645.69
2022-12-03T13:04:24.032Z,98748.75
2022-12-03T13:06:54.434Z,98723.47
2022-12-03T13:09:24.912Z,98823.06
2022-12-03T13:12:04.156Z,98703.81
2022-12-03T13:14:37.130Z,98689.06
2022-12-03T13:17:18.910Z,98761.50
2022-12-03T13:19:49.310Z,98712.44
2022-12-03T13:22:22.425Z,98684.75
2022-12-03T13:24:56.145Z,98688.38
2022-12-03T13:27:30.982Z,98787.84
2022-12-03T13:30:15.802Z,98625.41
2022-12-03T13:32:43.670Z,98716.78
2022-12-03T13:35:10.508Z,98694.84
2022-12-03T13:37:38.519Z,98769.44
2022-12-03T13:40:28.885Z,98789.19
2022-12-03T13:42:56.957Z,98656.81
2022-12-03T13:45:24.830Z,98614.28
2022-12-03T13:48:31.762Z,98721.31
2022-12-03T13:51:14.332Z,98689.97
2022-12-03T13:53:41.516Z,98704.38
2022-12-03T13:56:29.073Z,98812.59
2022-12-03T13:58:59.497Z,98739.66
2022-12-03T14:01:27.795Z,98709.94
2022-12-03T14:03:54.851Z,98689.38
2022-12-03T14:06:22.168Z,98749.00
2022-12-03T14:08:49.381Z,98684.72
2022-12-03T14:11:34.490Z,98777.47
2022-12-03T14:14:01.833Z,98704.34
2022-12-03T14:16:29.065Z,98809.28
2022-12-03T14:18:56.195Z,98774.84
2022-12-03T14:21:23.149Z,98754.59
2022-12-03T14:23:50.138Z,98739.53
2022-12-03T14:26:17.186Z,98639.06
2022-12-03T14:28:44.176Z,98759.28
2022-12-03T14:31:11.591Z,98761.75
2022-12-03T14:33:38.757Z,98605.75
2022-12-03T14:36:06.257Z,98706.53
2022-12-03T14:38:33.302Z,98634.78
2022-12-03T14:41:00.254Z,98821.19
2022-12-03T14:43:27.218Z,98807.75
2022-12-03T14:45:54.315Z,98804.84
2022-12-03T14:48:21.474Z,98838.94
2022-12-03T14:50:48.496Z,98813.09
2022-12-03T14:53:15.735Z,98793.09
2022-12-03T14:55:42.858Z,98709.00
2022-12-03T14:58:10.015Z,98817.84
2022-12-03T15:00:37.007Z,98713.47
2022-12-03T15:03:04.200Z,98718.75
2022-12-03T15:05:31.235Z,98800.19
2022-12-03T15:07:58.257Z,98783.41
2022-12-03T15:10:25.222Z,98671.22
2022-12-03T15:12:52.177Z,98708.56
2022-12-03T15:15:19.111Z,98719.28
2022-12-03T15:17:47.660Z,98765.09
2022-12-03T15:20:15.295Z,98761.44
2022-12-03T15:22:42.900Z,98770.28
2022-12-03T15:25:10.428Z,98816.50
2022-12-03T15:27:38.081Z,98841.44
2022-12-03T15:30:06.966Z,98813.81
2022-12-03T15:32:34.573Z,98774.72
2022-12-03T15:35:01.880Z,98778.34
2022-12-03T15:37:29.446Z,98799.81
2022-12-03T15:39:56.843Z,98766.75
2022-12-03T15:42:24.005Z,98740.13
2022-12-03T15:44:50.929Z,98652.59
2022-12-03T15:47:18.166Z,98763.25
2022-12-03T15:49:45.328Z,98805.84
2022-12-03T15:52:12.488Z,98687.75
2022-12-03T15:54:39.467Z,98695.72
2022-12-03T15:57:06.592Z,98730.69
2022-12-03T15:59:33.586Z,98760.63
2022-12-03T16:02:02.760Z,98776.97
2022-12-03T16:04:29.783Z,98765.59
2022-12-03T16:06:56.739Z,98752.63
2022-12-03T16:09:27.619Z,98770.78
2022-12-03T16:11:55.434Z,98655.31
2022-12-03T16:14:22.384Z,98710.31
2022-12-03T16:16:49.537Z,98657.13
2022-12-03T16:19:16.497Z,98775.22
2022-12-03T16:21:43.650Z,98777.44
2022-12-03T16:24:10.944Z,98771.31
2022-12-03T16:26:37.965Z,98768.56
2022-12-03T16:29:04.950Z,98758.94
2022-12-03T16:31:32.445Z,98787.97
2022-12-03T16:33:59.431Z,98720.41
2022-12-03T16:36:29.107Z,98751.03
2022-12-03T16:38:56.083Z,98756.00
2022-12-03T16:41:23.406Z,98768.72
2022-12-03T16:43:56.129Z,98766.41
2022-12-03T16:46:26.467Z,98738.03
2022-12-03T16:48:58.985Z,98701.72
2022-12-03T16:51:28.474Z,98696.28
2022-12-03T16:53:55.684Z,98665.41
2022-12-03T16:56:22.994Z,98711.16
2022-12-03T16:58:49.989Z,98637.13
2022-12-03T17:01:17.183Z,98665.97
2022-12-03T17:03:44.274Z,98748.81
2022-12-03T17:06:11.444Z,98684.72
2022-12-03T17:08:39.709Z,98603.47
2022-12-03T17:11:08.328Z,98627.59
2022-12-03T17:13:35.348Z,98665.31
2022-12-03T17:16:02.454Z,98705.16
2022-12-03T17:18:29.468Z,98754.41
2022-12-03T17:20:56.607Z,98702.81
2022-12-03T17:23:23.718Z,98688.63
2022-12-03T17:25:50.694Z,98736.91
2022-12-03T17:28:17.864Z,98701.91
2022-12-03T17:30:45.708Z,98716.47
2022-12-03T17:33:12.971Z,98713.81
2022-12-03T17:35:39.976Z,98712.81
2022-12-03T17:38:07.147Z,98699.44
2022-12-03T17:40:34.122Z,98685.16
2022-12-03T17:43:01.500Z,98687.19
2022-12-03T17:45:28.808Z,98728.63
2022-12-03T17:47:56.027Z,98743.59
2022-12-03T17:50:25.137Z,98717.78
2022-12-03T17:52:54.077Z,98743.00
2022-12-03T17:55:31.025Z,98736.81
2022-12-03T17:58:04.354Z,98715.16
2022-12-03T18:00:32.227Z,98630.47
2022-12-03T18:02:59.195Z,98654.78
2022-12-03T18:05:26.311Z,98657.75
2022-12-03T18:07:53.484Z,98591.22
2022-12-03T18:10:20.519Z,98711.34
2022-12-03T18:12:47.674Z,98708.78
2022-12-03T18:15:14.826Z,98713.91
2022-12-03T18:17:41.980Z,98704.56
2022-12-03T18:20:09.246Z,98638.13
2022-12-03T18:22:36.900Z,98633.63
2022-12-03T18:25:04.932Z,98558.97
2022-12-03T18:27:32.230Z,98635.03
2022-12-03T18:30:00.677Z,98561.34
2022-12-03T18:32:29.593Z,98655.31
2022-12-03T18:34:57.994Z,98725.09
2022-12-03T18:37:29.704Z,98755.69
2022-12-03T18:39:58.303Z,98583.66
2022-12-03T18:42:25.967Z,98627.31
2022-12-03T18:44:56.033Z,98667.94
2022-12-03T18:47:28.982Z,98566.25
2022-12-03T18:49:56.577Z,98640.72
2022-12-03T18:52:25.074Z,98706.75
2022-12-03T18:54:52.821Z,98734.19
2022-12-03T18:57:19.938Z,98717.78
2022-12-03T18:59:47.121Z,98719.56
2022-12-03T19:05:09.148Z,98734.09
2022-12-03T19:07:36.865Z,98722.97
2022-12-03T19:10:04.628Z,98712.50
2022-12-03T19:12:32.170Z,98692.41
2022-12-03T19:14:59.307Z,98685.81
2022-12-03T19:17:27.555Z,98700.00
2022-12-03T19:19:55.626Z,98600.63
2022-12-03T19:22:23.814Z,98592.25
2022-12-03T19:24:52.178Z,98700.09
2022-12-03T19:27:19.324Z,98715.69
2022-12-03T19:29:49.412Z,98688.97
2022-12-03T19:32:16.563Z,98642.28
2022-12-03T19:34:43.714Z,98526.34
2022-12-03T19:37:10.838Z,98582.75
2022-12-03T19:39:37.824Z,98621.47
2022-12-03T19:42:04.996Z,98679.00
2022-12-03T19:44:32.018Z,98606.97
2022-12-03T19:46:59.168Z,98600.63
2022-12-03T19:49:26.502Z,98682.88
2022-12-03T19:51:53.752Z,98640.41
2022-12-03T19:54:20.808Z,98651.13
2022-12-03T19:56:47.842Z,98708.41
2022-12-03T19:59:17.376Z,98729.59
2022-12-03T20:01:44.489Z,98529.75
2022-12-03T20:04:12.696Z,98609.94
2022-12-03T20:06:40.444Z,98720.75
2022-12-03T20:09:17.195Z,98665.09
2022-12-03T20:11:45.989Z,98566.38
2022-12-03T20:14:16.067Z,98640.28
2022-12-03T20:16:45.111Z,98702.66
2022-12-03T20:19:17.996Z,98673.44
2022-12-03T20:21:45.507Z,98598.03
2022-12-03T20:24:19.258Z,98615.38
2022-12-03T20:26:46.353Z,98638.31
2022-12-03T20:29:13.829Z,98689.81
2022-12-03T20:31:40.869Z,98643.22
2022-12-03T20:34:11.173Z,98576.94
2022-12-03T20:36:42.298Z,98661.41
2022-12-03T20:39:10.720Z,98669.25
2022-12-03T20:41:38.290Z,98665.91
2022-12-03T20:44:07.538Z,98714.13
2022-12-03T20:46:34.811Z,98577.41
2022-12-03T20:49:02.216Z,98578.03
2022-12-03T20:51:31.062Z,98699.16
2022-12-03T20:54:00.702Z,98485.53
2022-12-03T20:56:35.653Z,98607.16
2022-12-03T20:59:06.753Z,98706.09
2022-12-03T21:01:36.029Z,98716.47
2022-12-03T21:04:05.161Z,98667.00
2022-12-03T21:06:35.960Z,98573.75
2022-12-03T21:09:07.153Z,98592.09
2022-12-03T21:11:35.987Z,98508.69
2022-12-03T21:14:04.236Z,98660.06
2022-12-03T21:17:05.665Z,98686.03
2022-12-03T21:19:23.160Z,98675.91
2022-12-03T21:21:50.166Z,98539.63
2022-12-03T21:24:17.548Z,98668.56
2022-12-03T21:26:44.534Z,98626.19
2022-12-03T21:29:11.683Z,98697.56
2022-12-03T21:31:40.041Z,98539.69
2022-12-03T21:34:08.627Z,98658.19
2022-12-03T21:36:36.108Z,98526.75
2022-12-03T21:39:04.301Z,98484.34
2022-12-03T21:41:31.929Z,98583.03
2022-12-03T21:43:59.106Z,98650.94
2022-12-03T21:47:11.089Z,98521.72
2022-12-03T21:49:15.323Z,98594.56
2022-12-03T21:51:42.315Z,98607.22
2022-12-03T21:54:09.414Z,98591.09
2022-12-03T21:56:36.535Z,98561.34
2022-12-03T21:59:03.999Z,98490.53
2022-12-03T22:01:31.206Z,98505.72
2022-12-03T22:03:59.208Z,98583.94
2022-12-03T22:06:27.215Z,98494.97
2022-12-03T22:08:54.269Z,98449.94
2022-12-03T22:11:24.374Z,98555.56
2022-12-03T22:13:51.572Z,98591.44
2022-12-03T22:16:21.296Z,98562.19
2022-12-03T22:18:48.962Z,98437.84
2022-12-03T22:21:19.747Z,98579.22
2022-12-03T22:23:47.480Z,98562.44
2022-12-03T22:26:17.793Z,98607.56
2022-12-03T22:28:47.453Z,98540.53
2022-12-03T22:31:16.415Z,98498.72
2022-12-03T22:33:51.280Z,98512.91
2022-12-03T22:36:21.599Z,98501.44
2022-12-03T22:38:50.764Z,98532.72
2022-12-03T22:41:19.247Z,98611.97
2022-12-03T22:43:47.282Z,98494.53
2022-12-03T22:46:16.150Z,98496.16
2022-12-03T22:48:45.633Z,98518.22
2022-12-03T22:51:23.009Z,98611.78
2022-12-03T22:53:59.110Z,98494.41
2022-12-03T22:56:27.980Z,98560.16
2022-12-03T22:58:55.612Z,98641.34
2022-12-03T23:01:26.442Z,98468.06
2022-12-03T23:03:53.709Z,98608.25
2022-12-03T23:06:21.889Z,98650.75
2022-12-03T23:08:49.557Z,98487.63
2022-12-03T23:11:19.979Z,98538.81
2022-12-03T23:13:48.475Z,98550.34
2022-12-03T23:16:23.959Z,98578.00
2022-12-03T23:18:51.313Z,98587.25
2022-12-03T23:21:29.927Z,98591.88
2022-12-03T23:24:00.399Z,98491.72
2022-12-03T23:26:28.772Z,98557.19
2022-12-03T23:28:56.010Z,98643.03
2022-12-03T23:31:24.959Z,98573.63
2022-12-03T23:33:53.004Z,98497.31
2022-12-03T23:36:21.325Z,98543.81
2022-12-03T23:38:48.850Z,98577.06
2022-12-03T23:41:19.939Z,98552.69
2022-12-03T23:43:47.739Z,98628.13
2022-12-03T23:46:19.427Z,98652.56
2022-12-03T23:48:46.780Z,98593.38
2022-12-03T23:51:17.568Z,98516.75
2022-12-03T23:53:45.086Z,98605.47
2022-12-03T23:56:19.681Z,98571.06
2022-12-03T23:58:46.838Z,98463.88
